Flight Track Log - Related Links

Times and Time Zones

All times are in EDT time to prevent confusion due to time zone crossing. See the EZY2567 flight status page for this flight to view local times or setup timezone preferences in your user account.

Time Position Orientation Groundspeed Altitude Reporting Facility
EDT Latitude Longitude Course Direction KTS MPH feet Rate Location/Type
Mon 12:20:00 AM 45.0785 7.7614 231° Southwest  Level Estimated
Mon 12:21:00 AM 45.0166 7.6551 231° Southwest  Level Estimated
Mon 12:22:00 AM 44.9547 7.5491 230° Southwest  Level Estimated
Mon 12:22:05 AM 45.6080 8.7290 230° Southwest 165 190 1,600  Level FlightAware ADS-B
Mon 12:22:35 AM 45.5860 8.7330 173° South 164 189 2,800 2,182 Climbing FlightAware ADS-B
Mon 12:23:00 AM 45.5660 8.7370 172° South 172 198 3,600 1,636 Climbing FlightAware ADS-B
Mon 12:23:30 AM 45.5430 8.7270 197° South 200 230 4,300 1,100 Climbing FlightAware ADS-B
Mon 12:24:00 AM 45.5150 8.7040 210° Southwest 252 290 4,700 764 Climbing FlightAware ADS-B
Mon 12:24:25 AM 45.4860 8.6800 210° Southwest 298 343 5,000 1,636 Climbing FlightAware ADS-B
Mon 12:24:55 AM 45.4480 8.6490 210° Southwest 322 371 6,200 2,400 Climbing FlightAware ADS-B
Mon 12:25:20 AM 45.4170 8.6230 210° Southwest 337 388 7,200 2,850 Climbing FlightAware ADS-B
Mon 12:25:35 AM 45.3940 8.6060 207° Southwest 341 392 8,100 3,333 Climbing FlightAware ADS-B
Mon 12:26:05 AM 45.3520 8.5720 210° Southwest 345 397 9,700 3,000 Climbing FlightAware ADS-B
Mon 12:26:45 AM 45.2950 8.5270 209° Southwest 356 410 11,600 2,753 Climbing FlightAware ADS-B
Mon 12:27:30 AM 45.2310 8.4770 209° Southwest 368 423 13,600 2,471 Climbing FlightAware ADS-B
Mon 12:28:10 AM 45.1710 8.4290 209° Southwest 380 437 15,100 2,400 Climbing FlightAware ADS-B
Mon 12:28:50 AM 45.1100 8.3800 210° Southwest 386 444 16,800 2,329 Climbing FlightAware ADS-B
Mon 12:29:35 AM 45.0390 8.3240 209° Southwest 398 458 18,400 2,118 Climbing FlightAware ADS-B
Mon 12:30:15 AM 44.9750 8.2720 210° Southwest 407 468 19,800 2,118 Climbing FlightAware ADS-B
Mon 12:31:00 AM 44.8970 8.2110 209° Southwest 414 476 21,400 1,404 Climbing FlightAware ADS-B
Mon 12:33:00 AM 44.7771 7.9950 232° Southwest  Level Estimated
Mon 12:34:00 AM 44.7169 7.8874 232° Southwest  Level Estimated
Mon 12:35:00 AM 44.6570 7.7805 232° Southwest  Level Estimated
Mon 12:36:00 AM 44.5970 7.6739 232° Southwest  Level Estimated
Mon 12:37:00 AM 44.5369 7.5675 232° Southwest  Level Estimated
Mon 12:38:00 AM 44.4768 7.4613 232° Southwest  Level Estimated
Mon 12:39:00 AM 44.4165 7.3554 231° Southwest  Level Estimated
Mon 12:40:00 AM 44.3561 7.2496 231° Southwest  Level Estimated
Mon 12:41:00 AM 44.2956 7.1441 231° Southwest  Level Estimated
Mon 12:42:00 AM 44.2350 7.0388 231° Southwest  Level Estimated
Mon 12:42:30 AM 44.0190 6.6600 231° Southwest 456 525 37,000  Level FlightAware ADS-B
Mon 12:43:20 AM 43.9580 6.5400 235° Southwest 458 527 37,000  Level FlightAware ADS-B
Mon 12:44:00 AM 43.9090 6.4420 235° Southwest 464 534 37,000  Level FlightAware ADS-B
Mon 12:44:40 AM 43.8610 6.3450 236° Southwest 464 534 37,000  Level FlightAware ADS-B
Mon 12:45:25 AM 43.8070 6.2370 235° Southwest 466 536 37,000  Level FlightAware ADS-B
Mon 12:46:05 AM 43.7570 6.1380 235° Southwest 469 540 37,000 71 Level FlightAware ADS-B
Mon 12:46:50 AM 43.6980 6.0210 235° Southwest 467 537 37,100  Climbing FlightAware ADS-B
Mon 12:47:30 AM 43.6490 5.9240 235° Southwest 466 536 37,000 -71 Descending FlightAware ADS-B
Mon 12:48:15 AM 43.5940 5.8160 235° Southwest 464 534 37,000  Level FlightAware ADS-B
Mon 12:48:55 AM 43.5450 5.7210 235° Southwest 460 529 37,000  Level FlightAware ADS-B
Mon 12:49:35 AM 43.4970 5.6250 235° Southwest 458 527 37,000  Level FlightAware ADS-B
Mon 12:50:20 AM 43.4400 5.5150 235° Southwest 455 524 37,000  Level FlightAware ADS-B
Mon 12:51:00 AM 43.3920 5.4230 234° Southwest 452 520 37,000  Level FlightAware ADS-B
Mon 12:51:45 AM 43.3390 5.3200 235° Southwest 452 520 37,000  Level FlightAware ADS-B
Mon 12:52:20 AM 43.2960 5.2360 235° Southwest 452 520 37,000  Level FlightAware ADS-B
Mon 12:53:10 AM 43.2370 5.1230 234° Southwest 454 522 37,000  Level FlightAware ADS-B
Mon 12:53:50 AM 43.1870 5.0270 234° Southwest 455 524 37,000  Level FlightAware ADS-B
Mon 12:54:30 AM 43.1370 4.9320 234° Southwest 457 526 37,000  Level FlightAware ADS-B
Mon 12:55:10 AM 43.0930 4.8480 234° Southwest 458 527 37,000  Level FlightAware ADS-B
Mon 12:55:55 AM 43.0240 4.7390 229° Southwest 463 533 37,000  Level FlightAware ADS-B
Mon 12:56:35 AM 42.9600 4.6620 221° Southwest 465 535 37,000  Level FlightAware ADS-B
Mon 12:57:20 AM 42.8900 4.5760 222° Southwest 466 536 37,000 71 Level FlightAware ADS-B
Mon 12:58:00 AM 42.8250 4.4980 221° Southwest 464 534 37,100  Climbing FlightAware ADS-B
Mon 12:58:45 AM 42.7510 4.4100 221° Southwest 464 534 37,000 -71 Descending FlightAware ADS-B
Mon 12:59:25 AM 42.6880 4.3350 221° Southwest 465 535 37,000  Level FlightAware ADS-B
Mon 01:00:05 AM 42.6260 4.2610 221° Southwest 466 536 37,000  Level FlightAware ADS-B
Mon 01:00:50 AM 42.5510 4.1720 221° Southwest 467 537 37,000  Level FlightAware ADS-B
Mon 01:01:30 AM 42.4880 4.0970 221° Southwest 468 539 37,000 80 Level FlightAware ADS-B
Mon 01:02:05 AM 42.4270 4.0260 221° Southwest 467 537 37,100 71 Climbing FlightAware ADS-B
Mon 01:02:55 AM 42.3460 3.9300 221° Southwest 465 535 37,100 -67 Level FlightAware ADS-B
Mon 01:03:35 AM 42.2820 3.8540 221° Southwest 463 533 37,000 -71 Descending FlightAware ADS-B
Mon 01:04:20 AM 42.2070 3.7670 221° Southwest 462 532 37,000  Level FlightAware ADS-B
Mon 01:05:00 AM 42.1450 3.6900 223° Southwest 459 528 37,000  Level FlightAware ADS-B
Mon 01:05:45 AM 42.0870 3.5930 231° Southwest 451 519 37,000  Level FlightAware ADS-B
Mon 01:06:25 AM 42.0450 3.4970 240° Southwest 444 511 37,000  Level FlightAware ADS-B
Mon 01:07:10 AM 42.0060 3.3830 245° Southwest 443 510 37,000  Level FlightAware ADS-B
Mon 01:07:50 AM 41.9720 3.2820 246° West 444 511 37,000  Level FlightAware ADS-B
Mon 01:08:30 AM 41.9320 3.1860 241° Southwest 451 519 37,000  Level FlightAware ADS-B
Mon 01:09:15 AM 41.8760 3.0840 234° Southwest 456 525 37,000  Level FlightAware ADS-B
Mon 01:09:55 AM 41.8240 2.9930 233° Southwest 456 525 37,000  Level FlightAware ADS-B
Mon 01:10:35 AM 41.7720 2.9040 232° Southwest 457 526 37,000  Level FlightAware ADS-B
Mon 01:11:20 AM 41.7150 2.8050 232° Southwest 458 527 37,000  Level FlightAware ADS-B
Mon 01:12:00 AM 41.6640 2.7180 232° Southwest 457 526 37,000  Level FlightAware ADS-B
Mon 01:12:45 AM 41.6040 2.6140 232° Southwest 457 526 37,000  Level FlightAware ADS-B
Mon 01:13:25 AM 41.5530 2.5250 233° Southwest 456 525 37,000  Level FlightAware ADS-B
Mon 01:14:10 AM 41.4950 2.4280 231° Southwest 455 524 37,000  Level FlightAware ADS-B
Mon 01:14:50 AM 41.4430 2.3390 232° Southwest 455 524 37,000  Level FlightAware ADS-B
Mon 01:15:30 AM 41.3920 2.2520 232° Southwest 455 524 37,000  Level FlightAware ADS-B
Mon 01:16:15 AM 41.3320 2.1500 232° Southwest 457 526 37,000  Level FlightAware ADS-B
Mon 01:16:55 AM 41.2770 2.0630 230° Southwest 461 531 37,000  Level FlightAware ADS-B
Mon 01:17:40 AM 41.2140 1.9700 228° Southwest 463 533 37,000  Level FlightAware ADS-B
Mon 01:18:20 AM 41.1560 1.8850 228° Southwest 462 532 37,000  Level FlightAware ADS-B
Mon 01:19:00 AM 41.0990 1.8010 228° Southwest 460 529 37,000  Level FlightAware ADS-B
Mon 01:19:45 AM 41.0340 1.7060 228° Southwest 463 533 37,000  Level FlightAware ADS-B
Mon 01:20:25 AM 40.9790 1.6250 228° Southwest 462 532 37,000  Level FlightAware ADS-B
Mon 01:21:05 AM 40.9200 1.5390 228° Southwest 463 533 37,000  Level FlightAware ADS-B
Mon 01:21:50 AM 40.8570 1.4470 228° Southwest 463 533 37,000  Level FlightAware ADS-B
Mon 01:22:30 AM 40.7980 1.3620 227° Southwest 465 535 37,000  Level FlightAware ADS-B
Mon 01:23:10 AM 40.7410 1.2790 228° Southwest 467 537 37,000  Level FlightAware ADS-B
Mon 01:23:55 AM 40.6740 1.1820 228° Southwest 467 537 37,000 67 Level FlightAware ADS-B
Mon 01:24:40 AM 40.6090 1.0890 227° Southwest 467 537 37,100 71 Climbing FlightAware ADS-B
Mon 01:25:20 AM 40.5510 1.0060 227° Southwest 464 534 37,100 -75 Level FlightAware ADS-B
Mon 01:26:00 AM 40.4940 0.9240 228° Southwest 462 532 37,000 -71 Descending FlightAware ADS-B
Mon 01:26:45 AM 40.4280 0.8290 228° Southwest 460 529 37,000  Level FlightAware ADS-B
Mon 01:27:25 AM 40.3690 0.7460 227° Southwest 459 528 37,000  Level FlightAware ADS-B
Mon 01:28:05 AM 40.3110 0.6630 228° Southwest 460 529 37,000  Level FlightAware ADS-B
Mon 01:28:50 AM 40.2490 0.5760 227° Southwest 462 532 37,000  Level FlightAware ADS-B
Mon 01:29:30 AM 40.1890 0.4920 227° Southwest 466 536 37,000  Level FlightAware ADS-B
Mon 01:30:15 AM 40.1220 0.3960 228° Southwest 469 540 37,000 71 Level FlightAware ADS-B
Mon 01:30:55 AM 40.0630 0.3150 226° Southwest 472 543 37,100 75 Climbing FlightAware ADS-B
Mon 01:31:35 AM 40.0030 0.2300 227° Southwest 472 543 37,100  Level FlightAware ADS-B
Mon 01:32:20 AM 39.9370 0.1390 227° Southwest 470 541 37,100  Level FlightAware ADS-B
Mon 01:33:00 AM 39.8780 0.0580 227° Southwest 468 539 37,100 -71 Level FlightAware ADS-B
Mon 01:33:45 AM 39.8130 -0.0330 227° Southwest 465 535 37,000 -71 Descending FlightAware ADS-B
Mon 01:34:25 AM 39.7510 -0.1170 226° Southwest 463 533 37,000  Level FlightAware ADS-B
Mon 01:35:05 AM 39.6920 -0.1990 227° Southwest 461 531 37,000  Level FlightAware ADS-B
Mon 01:35:50 AM 39.6300 -0.2860 227° Southwest 460 529 37,000  Level FlightAware ADS-B
Mon 01:36:30 AM 39.5700 -0.3670 226° Southwest 461 531 37,000  Level FlightAware ADS-B
Mon 01:37:15 AM 39.5030 -0.4590 227° Southwest 464 534 37,000  Level FlightAware ADS-B
Mon 01:37:55 AM 39.4490 -0.5440 231° Southwest 462 532 37,000  Level FlightAware ADS-B
Mon 01:38:40 AM 39.3920 -0.6430 233° Southwest 466 536 37,000  Level FlightAware ADS-B
Mon 01:39:20 AM 39.3400 -0.7310 233° Southwest 470 541 37,000 75 Level FlightAware ADS-B
Mon 01:40:00 AM 39.2880 -0.8190 233° Southwest 471 542 37,100 71 Climbing FlightAware ADS-B
Mon 01:40:45 AM 39.2260 -0.9240 233° Southwest 470 541 37,100 -71 Level FlightAware ADS-B
Mon 01:41:25 AM 39.1740 -1.0110 232° Southwest 469 540 37,000 -71 Descending FlightAware ADS-B
Mon 01:42:10 AM 39.1160 -1.1100 233° Southwest 469 540 37,000  Level FlightAware ADS-B
Mon 01:42:50 AM 39.0620 -1.1990 232° Southwest 468 539 37,000  Level FlightAware ADS-B
Mon 01:43:30 AM 39.0130 -1.2810 232° Southwest 467 537 37,000  Level FlightAware ADS-B
Mon 01:44:15 AM 38.9500 -1.3860 232° Southwest 467 537 37,000  Level FlightAware ADS-B
Mon 01:44:55 AM 38.8970 -1.4740 232° Southwest 468 539 37,000  Level FlightAware ADS-B
Mon 01:45:35 AM 38.8440 -1.5620 232° Southwest 469 540 37,000  Level FlightAware ADS-B
Mon 01:46:20 AM 38.7870 -1.6480 230° Southwest 475 547 37,000  Level FlightAware ADS-B
Mon 01:47:00 AM 38.7220 -1.7290 224° Southwest 475 547 37,000  Level FlightAware ADS-B
Mon 01:47:45 AM 38.6510 -1.8170 224° Southwest 476 548 37,000  Level FlightAware ADS-B
Mon 01:48:25 AM 38.5880 -1.8960 224° Southwest 477 549 37,000  Level FlightAware ADS-B
Mon 01:49:10 AM 38.5180 -1.9830 224° Southwest 477 549 37,000  Level FlightAware ADS-B
Mon 01:49:45 AM 38.4600 -2.0550 224° Southwest 475 547 37,000  Level FlightAware ADS-B
Mon 01:50:30 AM 38.3880 -2.1430 224° Southwest 473 544 37,000  Level FlightAware ADS-B
Mon 01:51:15 AM 38.3180 -2.2310 225° Southwest 473 544 37,000  Level FlightAware ADS-B
Mon 01:51:45 AM 38.2720 -2.2870 224° Southwest 472 543 37,000  Level FlightAware ADS-B
Mon 01:52:40 AM 38.1870 -2.3900 224° Southwest 474 545 37,000  Level FlightAware ADS-B
Mon 01:53:15 AM 38.1320 -2.4580 224° Southwest 475 547 37,000  Level FlightAware ADS-B
Mon 01:54:00 AM 38.0560 -2.5500 224° Southwest 478 550 37,000  Level FlightAware ADS-B
Mon 01:54:45 AM 37.9900 -2.6290 223° Southwest 478 550 37,000  Level FlightAware ADS-B
Mon 01:55:25 AM 37.9350 -2.6940 223° Southwest 478 550 37,000  Level FlightAware ADS-B
Mon 01:56:05 AM 37.8800 -2.7590 223° Southwest 478 550 37,000  Level FlightAware ADS-B
Mon 01:56:45 AM 37.8250 -2.8240 223° Southwest 478 550 37,000  Level FlightAware ADS-B
Mon 01:57:25 AM 37.7700 -2.8890 223° Southwest 478 550 37,000  Level FlightAware ADS-B
Mon 01:58:15 AM 37.6470 -3.0440 225° Southwest 479 551 37,000  Level FlightAware ADS-B
Mon 01:58:55 AM 37.5840 -3.1190 223° Southwest 478 550 37,000  Level FlightAware ADS-B
Mon 01:59:35 AM 37.5180 -3.1980 224° Southwest 478 550 37,000  Level FlightAware ADS-B
Mon 02:00:20 AM 37.4480 -3.2820 224° Southwest 477 549 37,000  Level FlightAware ADS-B
Mon 02:01:00 AM 37.3840 -3.3580 223° Southwest 476 548 37,000  Level FlightAware ADS-B
Mon 02:01:45 AM 37.3110 -3.4440 223° Southwest 478 550 37,000  Level FlightAware ADS-B
Mon 02:02:25 AM 37.2470 -3.5200 223° Southwest 479 551 37,000  Level FlightAware ADS-B
Mon 02:03:10 AM 37.1760 -3.6020 223° Southwest 479 551 37,000  Level FlightAware ADS-B
Mon 02:03:50 AM 37.1110 -3.6800 224° Southwest 479 551 37,000  Level FlightAware ADS-B
Mon 02:04:30 AM 37.0450 -3.7560 223° Southwest 479 551 37,000  Level FlightAware ADS-B
Mon 02:05:05 AM 36.9910 -3.8190 223° Southwest 479 551 37,000  Level FlightAware ADS-B
Mon 02:05:55 AM 36.9150 -3.9080 223° Southwest 478 550 37,000  Level FlightAware ADS-B
Mon 02:06:35 AM 36.8460 -3.9880 223° Southwest 471 542 37,000  Level FlightAware ADS-B
Mon 02:07:20 AM 36.7740 -4.0720 223° Southwest 471 542 37,000  Level FlightAware ADS-B
Mon 02:08:00 AM 36.7080 -4.1480 223° Southwest 470 541 37,000  Level FlightAware ADS-B
Mon 02:08:45 AM 36.6350 -4.2320 223° Southwest 469 540 37,000  Level FlightAware ADS-B
Mon 02:09:25 AM 36.5780 -4.2980 223° Southwest 468 539 37,000  Level FlightAware ADS-B
Mon 02:10:05 AM 36.5050 -4.3820 223° Southwest 466 536 37,000  Level FlightAware ADS-B
Mon 02:10:50 AM 36.4330 -4.4650 223° Southwest 467 537 37,000  Level FlightAware ADS-B
Mon 02:11:30 AM 36.3680 -4.5390 223° Southwest 467 537 37,000  Level FlightAware ADS-B
Mon 02:12:15 AM 36.2960 -4.6200 222° Southwest 465 535 37,000  Level FlightAware ADS-B
Mon 02:12:55 AM 36.2320 -4.6930 223° Southwest 465 535 37,000  Level FlightAware ADS-B
Mon 02:13:35 AM 36.1680 -4.7660 223° Southwest 464 534 37,000  Level FlightAware ADS-B
Mon 02:14:20 AM 36.0950 -4.8480 222° Southwest 463 533 37,000  Level FlightAware ADS-B
Mon 02:15:00 AM 36.0330 -4.9190 223° Southwest 462 532 37,000  Level FlightAware ADS-B
Mon 02:15:45 AM 35.9600 -5.0010 222° Southwest 461 531 37,000  Level FlightAware ADS-B
Mon 02:16:25 AM 35.8960 -5.0720 222° Southwest 460 529 37,000  Level FlightAware ADS-B
Mon 02:17:05 AM 35.8340 -5.1420 222° Southwest 467 537 37,000  Level FlightAware ADS-B
Mon 02:17:50 AM 35.7540 -5.2160 217° Southwest 463 533 37,000  Level FlightAware ADS-B
Mon 02:18:30 AM 35.6840 -5.2800 217° Southwest 464 534 37,000  Level FlightAware ADS-B
Mon 02:19:15 AM 35.6060 -5.3520 217° Southwest 465 535 37,000  Level FlightAware ADS-B
Mon 02:19:55 AM 35.5340 -5.4130 215° Southwest 474 545 37,000  Level FlightAware ADS-B
Mon 02:20:35 AM 35.4590 -5.4710 212° Southwest 474 545 37,000  Level FlightAware ADS-B
Mon 02:21:20 AM 35.3780 -5.5360 213° Southwest 466 536 37,000  Level FlightAware ADS-B
Mon 02:22:00 AM 35.3040 -5.5960 213° Southwest 464 534 37,000  Level FlightAware ADS-B
Mon 02:22:45 AM 35.2220 -5.6610 213° Southwest 463 533 37,000  Level FlightAware ADS-B
Mon 02:23:25 AM 35.1490 -5.7190 213° Southwest 461 531 37,000  Level FlightAware ADS-B
Mon 02:24:05 AM 35.0760 -5.7780 213° Southwest 461 531 37,000  Level FlightAware ADS-B
Mon 02:24:50 AM 34.9950 -5.8420 213° Southwest 465 535 37,000  Level FlightAware ADS-B
Mon 02:25:30 AM 34.9240 -5.8980 213° Southwest 463 533 37,000  Level FlightAware ADS-B
Mon 02:26:15 AM 34.8450 -5.9610 213° Southwest 460 529 37,000  Level FlightAware ADS-B
Mon 02:26:55 AM 34.7720 -6.0190 213° Southwest 460 529 37,000 -675 Level FlightAware ADS-B
Mon 02:27:35 AM 34.7000 -6.0760 213° Southwest 461 531 36,100 -1,280 Descending FlightAware ADS-B
Mon 02:28:10 AM 34.6380 -6.1250 213° Southwest 457 526 35,400 -1,129 Descending FlightAware ADS-B
Mon 02:29:00 AM 34.5500 -6.1940 213° Southwest 447 514 34,500 -1,137 Descending FlightAware ADS-B
Mon 02:29:45 AM 34.4700 -6.2570 213° Southwest 463 533 33,600 -1,120 Descending FlightAware ADS-B
Mon 02:30:15 AM 34.4220 -6.2940 212° Southwest 460 529 33,100 -750 Descending FlightAware ADS-B
Mon 02:31:05 AM 34.3310 -6.3650 213° Southwest 460 529 32,600 -333 Descending FlightAware ADS-B
Mon 02:31:45 AM 34.2710 -6.4130 213° Southwest 460 529 32,600  Level FlightAware ADS-B
Mon 02:32:25 AM 34.2100 -6.4600 213° Southwest 460 529 32,600  Level FlightAware ADS-B
Mon 02:33:05 AM 34.1490 -6.5080 213° Southwest 460 529 32,600  Level FlightAware ADS-B
Mon 02:33:55 AM 34.0740 -6.5680 214° Southwest 460 529 32,600  Level FlightAware ADS-B
Mon 02:34:35 AM 34.0130 -6.6150 213° Southwest 460 529 32,600  Level FlightAware ADS-B
Mon 02:35:15 AM 33.9520 -6.6630 213° Southwest 460 529 32,600  Level FlightAware ADS-B
Mon 02:35:55 AM 33.8910 -6.7100 213° Southwest 460 529 32,600  Level FlightAware ADS-B
Mon 02:36:35 AM 33.8310 -6.7580 214° Southwest 460 529 32,600  Level FlightAware ADS-B
Mon 02:37:25 AM 33.7550 -6.8170 213° Southwest 460 529 32,600  Level FlightAware ADS-B
Mon 02:38:05 AM 33.6940 -6.8640 213° Southwest 460 529 32,600  Level FlightAware ADS-B
Mon 02:38:45 AM 33.6340 -6.9120 214° Southwest 460 529 32,600  Level FlightAware ADS-B
Mon 02:39:25 AM 33.5730 -6.9590 213° Southwest 460 529 32,600  Level FlightAware ADS-B
Mon 02:40:05 AM 33.5120 -7.0060 213° Southwest 460 529 32,600 -10,846 Level FlightAware ADS-B
Mon 02:40:55 AM 33.3860 -7.1810 229° Southwest 9,300 -15,667 Descending FlightAware ADS-B
Mon 02:41:35 AM 33.3420 -7.2340 225° Southwest 378 435 9,100 -240 Descending FlightAware ADS-B
Mon 02:41:45 AM 33.3320 -7.2460 225° Southwest 378 435 9,100  Level FlightAware ADS-B
Mon 02:42:15 AM 33.3000 -7.2840 225° Southwest 378 435 9,100  Level FlightAware ADS-B
Mon 02:42:45 AM 33.2690 -7.3220 226° Southwest 378 435 9,100  Level FlightAware ADS-B
Mon 02:45:00 AM 33.3680 -7.5880 294° West  Level Estimated
Mon 02:46:00 AM 33.3680 -7.5880 257° West  Level Estimated
Mon 02:47:00 AM 33.3680 -7.5880 257° West  Level Estimated
Mon 02:48:00 AM 33.3680 -7.5880 257° West  Level Estimated
Mon 02:49:00 AM 33.3680 -7.5880 257° West  Level Estimated
Mon 02:50:00 AM 33.3680 -7.5880 257° West  Level Estimated
Mon 02:51:00 AM 33.3680 -7.5880 257° West  Level Estimated
Mon 02:52:00 AM 33.3680 -7.5880 257° West  Level Estimated
Mon 02:53:00 AM 33.3680 -7.5880 257° West  Level Estimated
Mon 02:54:00 AM 33.3680 -7.5880 257° West  Level Estimated
Mon 02:55:00 AM 33.3680 -7.5880 257° West  Level Estimated
Mon 02:56:00 AM 33.3680 -7.5880 257° West  Level Estimated
Mon 02:57:00 AM 33.3680 -7.5880 257° West  Level Estimated
Mon 02:58:00 AM 33.3680 -7.5880 257° West  Level Estimated
Mon 02:59:00 AM 33.3680 -7.5880 257° West  Level Estimated
Mon 03:00:00 AM 33.3680 -7.5880 257° West  Level Estimated
Mon 03:01:00 AM 33.3680 -7.5880 257° West  Level Estimated
Mon 03:02:00 AM 33.3680 -7.5880 257° West  Level Estimated
Mon 03:03:00 AM 33.3680 -7.5880 257° West  Level Estimated

Login

Don't have an account? Register now (free) for customized features, flight alerts, and more!